Ocilla, GA (31774)

12:56 AM EDT on May 25, 2015 (GMT -0400)
Fitzgerald Municipal | | Change Station
CLOSE
Current Station
Airport
Location: Fitzgerald Muni, Fitzgerald,,
Elevation: 364 ft
Nearby Weather Stations

Elev 364 ft 31.68 °N, 83.27 °W | Updated 21 minutes ago

Clear
Clear
73 °F
Feels Like 73 °F
N
6
Wind Variable Wind from ESE

Today
High -- | Low -- °F
--% Chance of Precip.
Yesterday
High -- | Low -- °F
Precip. -- in
6:31 AM 8:29 PM
Waxing Crescent, 45% visible
Pressure 30.28 in
Visibility 10.0 miles
Clouds Scattered Clouds 1700 ft
Dew Point 65 °F
Humidity 77%
Rainfall 0.00 in
Snow Depth Not available.
UV 0 out of 12
Pollen 5.40 out of 12
Air Quality Not available.
Flu Activity Sporadic
METAR KFZG 250435Z AUTO 11005KT 10SM SCT017 23/18 A3028 RMK AO2 T02260183

More Conditions Fewer Conditions

Pressure 30.28 in
Visibility 10.0 miles
Clouds Scattered Clouds 1700 ft
Dew Point 65 °F
Humidity 77%
Rainfall 0.00 in
Snow Depth Not available.
UV 0 out of 12
Pollen 5.40 out of 12
Air Quality Not available.
Flu Activity Sporadic
METAR KFZG 250435Z AUTO 11005KT 10SM SCT017 23/18 A3028 RMK AO2 T02260183

More Conditions Fewer Conditions

10-Day Weather Forecast

Almanac

Astronomy

May. 25, 2015 Rise Set
Actual Time
Civil Twilight
Nautical Twilight
Astronomical Twilight
Moon
Length of Visible Light
Length of Day
Tomorrow will be .
, % of the Moon is Illuminated

Today's Extremes

State Highs State Lows

Community

WunderPhotos

Upload Photos

1,823,955 photos uploaded!

WunderBlogs® & News

Nearby

Air Quality

  Air Quality AQ Index Pollutant
Not available.

Snow Depth

Station Depth Elevation

Earthquake Activity

City Distance Mag. Time & Date
Minimum magnitude displayed is 2.5.

Coastal Water Temperatures

Place Temperature

Stations

Nearby Weather Stations

Station Location Temp. Windchill Dew Point Humidity Wind Precip. Elev Updated Type